Time;durP1;ratioP1;P1;durP2;ratioP2;P2;SDS_P1;SDS_P2;PMS_P1;PMS_P2;Temp;Humidity;BMP_temperature;BMP_pressure;BME280_temperature;BME280_humidity;BME280_pressure;Samples;Min_cycle;Max_cycle;Signal;HPM_P1;HPM_P2
2022/09/17 00:01:23;;;;;;;8.63;2.47;;;9.70;99.90;;;8.53;100.00;99684.47;5012770;28;20038;-77
2022/09/17 00:03:55;;;;;;;6.25;2.47;;;9.80;99.90;;;8.54;100.00;99683.56;5009966;28;20025;-77
2022/09/17 00:06:23;;;;;;;9.23;2.80;;;9.70;99.90;;;8.54;100.00;99684.41;4998040;28;20053;-77
2022/09/17 00:08:49;;;;;;;7.15;2.63;;;9.70;99.90;;;8.56;100.00;99692.19;4995103;28;20080;-77
2022/09/17 00:11:29;;;;;;;5.72;2.63;;;9.70;99.90;;;8.56;100.00;99686.94;5010002;28;20053;-77
2022/09/17 00:13:57;;;;;;;8.27;2.72;;;9.80;99.90;;;8.58;100.00;99695.56;5016596;28;20033;-77
2022/09/17 00:16:38;;;;;;;11.70;3.30;;;9.80;99.90;;;8.60;100.00;99693.72;5010988;28;20080;-77
2022/09/17 00:19:07;;;;;;;10.07;2.97;;;9.80;99.90;;;8.61;100.00;99692.78;5030728;28;20045;-76
2022/09/17 00:21:32;;;;;;;8.45;3.08;;;9.80;99.90;;;8.61;100.00;99696.22;5011764;28;20032;-77
2022/09/17 00:24:02;;;;;;;7.03;3.30;;;9.80;99.90;;;8.62;100.00;99699.72;5011776;28;20108;-77
2022/09/17 00:26:30;;;;;;;8.10;3.47;;;9.80;99.90;;;8.63;100.00;99694.38;5009308;28;20521;-76
2022/09/17 00:28:57;;;;;;;12.98;3.42;;;9.80;99.90;;;8.66;100.00;99696.00;5014141;28;20041;-77
2022/09/17 00:31:33;;;;;;;7.70;3.33;;;9.90;99.90;;;8.70;100.00;99697.50;5010646;28;20033;-77
2022/09/17 00:34:00;;;;;;;7.93;3.47;;;9.80;99.90;;;8.71;100.00;99688.72;5012012;28;20616;-76
2022/09/17 00:36:31;;;;;;;12.27;3.70;;;9.90;99.90;;;8.75;100.00;99686.78;5028191;28;20521;-77
2022/09/17 00:38:58;;;;;;;9.25;3.90;;;9.90;99.90;;;8.75;100.00;99686.78;5011279;28;20505;-77
2022/09/17 00:41:30;;;;;;;10.77;3.17;;;9.90;99.90;;;8.77;100.00;99684.91;5047443;23;20100;-76
2022/09/17 00:44:00;;;;;;;12.98;4.03;;;9.90;99.90;;;8.76;100.00;99689.28;5038455;28;20033;-76
2022/09/17 00:46:37;;;;;;;10.60;3.67;;;9.90;99.90;;;8.77;100.00;99695.41;5006191;28;20548;-76
2022/09/17 00:49:25;;;;;;;14.60;4.00;;;9.90;99.90;;;8.81;100.00;99692.53;5021091;28;20038;-76
2022/09/17 00:51:56;;;;;;;12.43;4.18;;;10.00;99.90;;;8.82;100.00;99688.13;5001526;28;20073;-76
2022/09/17 00:54:25;;;;;;;11.32;4.20;;;10.00;99.90;;;8.85;100.00;99692.34;4991689;28;20482;-76
2022/09/17 00:56:51;;;;;;;15.75;5.00;;;10.00;99.90;;;8.85;100.00;99687.09;5006580;28;20042;-76
2022/09/17 00:59:18;;;;;;;15.30;4.75;;;10.00;99.90;;;8.86;100.00;99688.81;5007893;28;20099;-76
2022/09/17 01:01:45;;;;;;;11.98;4.65;;;10.00;99.90;;;8.86;100.00;99687.03;5005702;28;20470;-76
2022/09/17 01:04:24;;;;;;;9.25;4.07;;;10.00;99.90;;;8.85;100.00;99680.06;5007227;28;20026;-76
2022/09/17 01:07:11;;;;;;;12.38;4.57;;;10.00;99.90;;;8.86;100.00;99673.91;5006642;28;20096;-76
2022/09/17 01:09:42;;;;;;;13.77;4.93;;;10.00;99.90;;;8.85;100.00;99684.47;4992579;28;20073;-76
2022/09/17 01:12:18;;;;;;;9.57;4.18;;;10.00;99.90;;;8.86;100.00;99678.31;4989512;28;20130;-76
2022/09/17 01:15:28;;;;;;;16.55;5.05;;;10.00;99.90;;;8.91;100.00;99677.09;4989307;28;20038;-76
2022/09/17 01:18:26;;;;;;;17.35;4.85;;;10.10;99.90;;;8.97;100.00;99686.41;4990545;28;20092;-76
2022/09/17 01:21:21;;;;;;;11.80;4.70;;;10.20;99.90;;;9.03;100.00;99683.44;4991805;28;20058;-76
2022/09/17 01:24:08;;;;;;;14.45;5.10;;;10.20;99.90;;;9.12;100.00;99689.97;4990016;28;20034;-76
2022/09/17 01:27:25;;;;;;;19.33;6.13;;;10.30;99.90;;;9.21;100.00;99686.78;4988403;28;20228;-76
2022/09/17 01:30:27;;;;;;;16.63;5.78;;;10.40;99.90;;;9.33;100.00;99687.84;4951452;29;20463;-74
2022/09/17 01:33:14;;;;;;;14.05;5.95;;;10.50;99.90;;;9.40;100.00;99690.06;4949162;28;20756;-76
2022/09/17 01:36:15;;;;;;;16.90;6.22;;;10.50;99.90;;;9.45;100.00;99687.16;4986134;28;20096;-75
2022/09/17 01:39:11;;;;;;;14.43;6.35;;;10.60;99.90;;;9.49;100.00;99693.09;5022823;28;20403;-76
2022/09/17 01:42:18;;;;;;;20.88;7.05;;;10.60;99.90;;;9.51;100.00;99692.06;5021083;28;20057;-76
2022/09/17 01:45:10;;;;;;;22.00;6.78;;;10.60;99.90;;;9.52;100.00;99693.72;5019841;28;20371;-76
2022/09/17 01:48:01;;;;;;;33.03;8.95;;;10.70;99.90;;;9.54;100.00;99691.00;5006669;28;20113;-76
2022/09/17 01:50:45;;;;;;;24.00;8.40;;;10.70;99.90;;;9.55;100.00;99685.69;5004797;28;20109;-76
2022/09/17 01:53:13;;;;;;;18.67;8.63;;;10.70;99.90;;;9.55;100.00;99680.44;5006147;28;20172;-76
2022/09/17 01:55:42;;;;;;;24.23;8.88;;;10.70;99.90;;;9.55;100.00;99687.47;4991498;28;20027;-76
2022/09/17 01:58:27;;;;;;;21.40;9.75;;;10.70;99.90;;;9.57;100.00;99681.19;4989631;28;20116;-76
2022/09/17 02:01:00;;;;;;;21.98;9.65;;;10.70;99.90;;;9.55;100.00;99683.06;5005651;28;20038;-77
2022/09/17 02:03:43;;;;;;;30.73;9.68;;;10.70;99.90;;;9.52;100.00;99696.34;5005868;28;20030;-75
2022/09/17 02:06:29;;;;;;;25.23;9.40;;;10.70;99.90;;;9.49;100.00;99703.59;4990946;28;20038;-76
2022/09/17 02:09:12;;;;;;;29.02;9.65;;;10.60;99.90;;;9.47;100.00;99697.59;5005401;28;20058;-76
2022/09/17 02:11:41;;;;;;;23.15;9.90;;;10.60;99.90;;;9.45;100.00;99700.28;4990386;28;20498;-76
2022/09/17 02:14:24;;;;;;;24.98;10.80;;;10.60;99.90;;;9.43;100.00;99695.13;5006868;28;20121;-76
2022/09/17 02:17:02;;;;;;;27.98;11.07;;;10.60;99.90;;;9.42;100.00;99697.84;5007351;28;20633;-76
2022/09/17 02:19:34;;;;;;;31.80;10.57;;;10.60;99.90;;;9.42;100.00;99693.44;5023678;28;20060;-76
2022/09/17 02:22:28;;;;;;;28.98;10.52;;;10.60;99.90;;;9.43;100.00;99694.28;5005317;28;20092;-76
2022/09/17 02:25:35;;;;;;;29.27;10.48;;;10.60;99.90;;;9.41;100.00;99696.13;4989912;28;20098;-77
2022/09/17 02:28:04;;;;;;;31.25;10.90;;;10.60;99.90;;;9.40;100.00;99697.94;4986151;28;20042;-76
2022/09/17 02:30:31;;;;;;;28.20;10.18;;;10.60;99.90;;;9.40;100.00;99700.56;4991226;28;20030;-76
2022/09/17 02:32:57;;;;;;;25.98;9.73;;;10.60;99.90;;;9.39;100.00;99698.00;4988873;28;20034;-74
2022/09/17 02:35:23;;;;;;;25.73;10.18;;;10.60;99.90;;;9.38;100.00;99698.97;5005094;28;20069;-76
2022/09/17 02:37:49;;;;;;;28.55;10.45;;;10.60;99.90;;;9.38;100.00;99698.97;5005574;28;20038;-76
2022/09/17 02:40:17;;;;;;;26.27;9.35;;;10.60;99.90;;;9.40;100.00;99699.72;5006020;28;20030;-76
2022/09/17 02:43:33;;;;;;;29.70;10.50;;;10.60;99.90;;;9.39;100.00;99698.84;4989280;28;20125;-76
2022/09/17 02:46:14;;;;;;;30.45;9.80;;;10.60;99.90;;;9.36;100.00;99708.72;4968118;28;20046;-76
2022/09/17 02:49:28;;;;;;;29.95;9.82;;;10.60;99.90;;;9.35;100.00;99712.25;4968478;28;20097;-76
2022/09/17 02:52:35;;;;;;;32.38;10.30;;;10.50;99.90;;;9.34;100.00;99711.41;4998084;28;20558;-75
2022/09/17 02:55:17;;;;;;;36.95;9.38;;;10.50;99.90;;;9.32;100.00;99715.91;4987812;28;20089;-76
2022/09/17 02:58:20;;;;;;;28.88;9.10;;;10.50;99.90;;;9.31;100.00;99711.59;4991174;28;20019;-74
2022/09/17 03:00:47;;;;;;;20.65;8.27;;;10.50;99.90;;;9.29;100.00;99717.84;4990269;28;20031;-76
2022/09/17 03:03:30;;;;;;;32.47;8.18;;;10.50;99.90;;;9.29;100.00;99707.34;5004805;28;20034;-76
2022/09/17 03:05:57;;;;;;;26.60;8.00;;;10.50;99.90;;;9.27;100.00;99707.47;5003891;28;20109;-76
2022/09/17 03:08:31;;;;;;;24.98;8.30;;;10.40;99.90;;;9.29;100.00;99707.34;4973232;28;20057;-76
2022/09/17 03:10:56;;;;;;;31.90;8.93;;;10.50;99.90;;;9.30;100.00;99701.19;4987825;28;20038;-76
2022/09/17 03:13:22;;;;;;;29.25;7.97;;;10.50;99.90;;;9.33;100.00;99706.25;5002478;28;20125;-74
2022/09/17 03:15:48;;;;;;;28.48;8.43;;;10.60;99.90;;;9.39;100.00;99714.63;4988543;28;20061;-76
2022/09/17 03:18:14;;;;;;;36.65;8.55;;;10.60;99.90;;;9.45;100.00;99714.25;4990460;28;20085;-76
2022/09/17 03:20:40;;;;;;;27.52;7.65;;;10.60;99.90;;;9.51;100.00;99713.06;4972156;28;20113;-74
2022/09/17 03:23:06;;;;;;;35.38;7.90;;;10.60;99.90;;;9.55;100.00;99709.34;4971426;28;20026;-76
2022/09/17 03:25:31;;;;;;;35.80;7.75;;;10.70;99.90;;;9.58;100.00;99706.50;4987853;28;20632;-76
2022/09/17 03:27:57;;;;;;;37.85;7.50;;;10.70;99.90;;;9.60;100.00;99709.91;5004229;28;20399;-76
2022/09/17 03:30:23;;;;;;;27.92;7.32;;;10.80;99.90;;;9.63;100.00;99715.00;4988911;28;20113;-77
2022/09/17 03:32:49;;;;;;;32.80;7.25;;;10.80;99.90;;;9.68;100.00;99711.25;4989710;28;20034;-77
2022/09/17 03:35:14;;;;;;;25.30;6.90;;;10.80;99.90;;;9.72;100.00;99715.38;5001784;28;20499;-76
2022/09/17 03:37:40;;;;;;;28.42;6.40;;;10.90;99.90;;;9.78;100.00;99721.13;4988161;28;20447;-77
2022/09/17 03:40:07;;;;;;;23.88;7.30;;;10.90;99.90;;;9.81;100.00;99720.09;5004444;28;20063;-76
2022/09/17 03:42:32;;;;;;;26.85;6.35;;;10.90;99.90;;;9.86;100.00;99723.28;4988625;28;20041;-76
2022/09/17 03:44:58;;;;;;;28.35;6.97;;;11.00;99.90;;;9.89;100.00;99720.47;5004956;28;20030;-75
2022/09/17 03:47:24;;;;;;;37.88;7.05;;;11.00;99.90;;;9.94;100.00;99728.09;5002492;28;20117;-76
2022/09/17 03:49:51;;;;;;;29.92;6.45;;;11.10;99.90;;;9.96;100.00;99724.44;4987856;28;20117;-74
2022/09/17 03:52:17;;;;;;;24.38;6.28;;;11.10;99.90;;;10.00;100.00;99735.59;4987983;28;20061;-76
2022/09/17 03:54:43;;;;;;;30.48;6.47;;;11.10;99.90;;;10.02;100.00;99729.34;4989409;28;20113;-76
2022/09/17 03:57:08;;;;;;;27.40;6.43;;;11.20;99.90;;;10.07;100.00;99734.31;4988736;28;20594;-76
2022/09/17 03:59:34;;;;;;;28.55;6.28;;;11.20;99.90;;;10.07;100.00;99735.16;4970209;28;20018;-76
2022/09/17 04:02:00;;;;;;;34.13;7.00;;;11.20;99.90;;;10.09;100.00;99734.22;4987764;28;20038;-76
2022/09/17 04:04:26;;;;;;;33.58;6.07;;;11.20;99.90;;;10.10;100.00;99734.13;5004587;28;20044;-76
2022/09/17 04:06:53;;;;;;;28.02;6.13;;;11.20;99.90;;;10.10;100.00;99730.66;4989380;28;20031;-76
2022/09/17 04:09:19;;;;;;;34.10;6.47;;;11.20;99.90;;;10.11;100.00;99741.09;4989501;28;20061;-76
2022/09/17 04:11:44;;;;;;;25.30;6.38;;;11.20;99.90;;;10.12;100.00;99739.28;4987235;28;20026;-76
2022/09/17 04:14:10;;;;;;;26.10;6.82;;;11.30;99.90;;;10.13;100.00;99746.22;4987591;28;20117;-76
2022/09/17 04:16:36;;;;;;;27.77;6.22;;;11.20;99.90;;;10.12;100.00;99739.28;4989098;28;20121;-76
2022/09/17 04:19:02;;;;;;;36.00;6.72;;;11.20;99.90;;;10.14;100.00;99737.41;5003836;28;20044;-76
2022/09/17 04:21:28;;;;;;;24.83;5.80;;;11.20;99.90;;;10.13;100.00;99746.22;5004552;28;20509;-76
2022/09/17 04:23:54;;;;;;;25.77;6.20;;;11.20;99.90;;;10.12;100.00;99744.56;4987119;28;20030;-76
2022/09/17 04:26:23;;;;;;;32.10;6.10;;;11.20;99.90;;;10.10;100.00;99736.75;4986801;28;20045;-76
2022/09/17 04:28:48;;;;;;;24.15;5.75;;;11.20;99.90;;;10.09;100.00;99739.50;5003868;28;20125;-76
2022/09/17 04:31:14;;;;;;;26.67;5.78;;;11.20;99.90;;;10.06;100.00;99737.88;5003765;28;20036;-76
2022/09/17 04:33:40;;;;;;;29.30;5.97;;;11.20;99.90;;;10.07;100.00;99747.47;5001837;28;20105;-76
2022/09/17 04:36:06;;;;;;;33.55;6.20;;;11.20;99.90;;;10.08;100.00;99741.25;5002769;28;20039;-76
2022/09/17 04:38:32;;;;;;;33.60;6.68;;;11.20;99.90;;;10.13;100.00;99756.75;4987201;28;20495;-76
2022/09/17 04:40:59;;;;;;;32.53;6.30;;;11.20;99.90;;;10.15;100.00;99752.25;4989216;28;20023;-76
2022/09/17 04:43:25;;;;;;;32.97;6.88;;;11.30;99.90;;;10.22;100.00;99764.13;5003066;28;20033;-77
2022/09/17 04:45:51;;;;;;;31.25;6.20;;;11.30;99.90;;;10.27;100.00;99752.34;4985956;28;20153;-77
2022/09/17 04:48:17;;;;;;;33.80;7.55;;;11.40;99.90;;;10.36;100.00;99758.03;4988106;28;20446;-76
2022/09/17 04:50:43;;;;;;;38.63;8.63;;;11.50;99.90;;;10.43;100.00;99760.22;4986610;28;20022;-76
2022/09/17 04:53:08;;;;;;;39.85;10.05;;;11.50;99.90;;;10.52;100.00;99761.44;4987177;28;20097;-77
2022/09/17 04:55:34;;;;;;;43.80;8.80;;;11.60;99.90;;;10.60;100.00;99753.03;5002947;28;20038;-77
2022/09/17 04:58:00;;;;;;;36.88;8.75;;;11.70;99.90;;;10.65;100.00;99753.63;5002715;28;20034;-77
2022/09/17 05:00:26;;;;;;;45.10;9.63;;;11.80;99.90;;;10.70;100.00;99762.06;5002736;28;20035;-77
2022/09/17 05:02:54;;;;;;;48.70;10.38;;;11.80;99.90;;;10.74;100.00;99768.81;5003624;28;20038;-76
2022/09/17 05:05:21;;;;;;;52.83;9.55;;;11.80;99.90;;;10.80;100.00;99770.25;5003688;28;20034;-76
2022/09/17 05:07:47;;;;;;;57.45;9.75;;;11.90;99.90;;;10.83;100.00;99775.31;4988612;28;20133;-76
2022/09/17 05:10:16;;;;;;;53.05;9.90;;;11.90;99.90;;;10.87;100.00;99771.53;4985176;28;20029;-76
2022/09/17 05:12:54;;;;;;;53.55;9.95;;;12.00;99.90;;;10.94;100.00;99772.00;5003484;28;20087;-76
2022/09/17 05:15:21;;;;;;;60.05;9.60;;;12.00;99.90;;;11.02;100.00;99772.38;4986159;28;20045;-76
2022/09/17 05:17:47;;;;;;;63.70;10.32;;;12.00;99.90;;;11.11;100.00;99771.75;4987041;28;20026;-76
2022/09/17 05:20:14;;;;;;;52.13;9.25;;;12.10;99.90;;;11.25;100.00;99778.78;4989791;28;20100;-77
2022/09/17 05:22:51;;;;;;;46.90;9.07;;;12.20;99.90;;;11.37;100.00;99771.88;5003627;28;20034;-77
2022/09/17 05:25:23;;;;;;;45.20;8.63;;;12.30;99.90;;;11.46;100.00;99777.38;5002840;28;20049;-76
2022/09/17 05:27:51;;;;;;;45.63;8.98;;;12.40;99.90;;;11.57;100.00;99775.84;4986508;28;20126;-76
2022/09/17 05:30:17;;;;;;;45.20;8.80;;;12.40;99.90;;;11.58;100.00;99775.75;5004053;28;20041;-77
2022/09/17 05:32:42;;;;;;;45.22;8.82;;;12.50;99.90;;;11.56;100.00;99776.81;4986305;28;20026;-77
2022/09/17 05:35:09;;;;;;;52.22;8.68;;;12.50;99.90;;;11.61;100.00;99777.31;4987573;28;20407;-76
2022/09/17 05:37:35;;;;;;;55.65;9.23;;;12.60;99.90;;;11.73;100.00;99780.94;5005206;28;20065;-76
2022/09/17 05:40:05;;;;;;;52.03;8.57;;;12.70;99.90;;;11.86;100.00;99784.47;5006329;28;20033;-77
2022/09/17 05:42:31;;;;;;;49.17;8.23;;;12.80;99.90;;;12.06;100.00;99781.34;5005350;28;20066;-76
2022/09/17 05:44:57;;;;;;;49.10;9.07;;;12.90;99.90;;;12.17;100.00;99779.78;5004947;28;20050;-76
2022/09/17 05:47:25;;;;;;;46.88;8.07;;;13.00;99.90;;;12.23;100.00;99776.72;4989278;28;20117;-77
2022/09/17 05:49:50;;;;;;;49.38;7.43;;;13.10;99.90;;;12.39;100.00;99782.63;4991107;28;20030;-77
2022/09/17 05:52:16;;;;;;;63.28;8.48;;;13.20;99.90;;;12.59;100.00;99791.81;4991328;28;20038;-77
2022/09/17 05:54:42;;;;;;;45.97;7.15;;;13.40;99.90;;;12.79;100.00;99786.94;4989075;28;20026;-77
2022/09/17 05:57:08;;;;;;;56.67;8.93;;;13.50;99.90;;;13.05;100.00;99790.38;5007157;28;20563;-77
2022/09/17 05:59:35;;;;;;;48.03;7.30;;;13.80;99.90;;;13.52;100.00;99784.28;5005329;28;20117;-76
2022/09/17 06:02:00;;;;;;;51.45;7.20;;;13.90;99.90;;;13.62;100.00;99786.25;5005618;28;20037;-77
2022/09/17 06:04:35;;;;;;;49.60;6.50;;;14.10;99.90;;;13.90;100.00;99796.44;5007331;28;20034;-77
2022/09/17 06:07:08;;;;;;;44.85;6.38;;;14.40;99.90;;;14.28;100.00;99797.16;5007181;28;20057;-77
2022/09/17 06:09:37;;;;;;;53.72;6.57;;;14.60;99.90;;;14.60;100.00;99797.34;5003082;28;20034;-77
2022/09/17 06:12:04;;;;;;;40.30;6.03;;;14.90;99.90;;;14.98;100.00;99791.63;4989239;28;20065;-77
2022/09/17 06:14:30;;;;;;;45.25;5.78;;;15.20;99.90;;;15.35;100.00;99793.97;4990497;28;20057;-77
2022/09/17 06:16:56;;;;;;;50.00;6.35;;;15.50;99.90;;;16.28;96.02;99802.28;4989495;28;20034;-77
2022/09/17 06:19:29;;;;;;;43.67;5.00;;;16.00;99.90;;;17.79;86.89;99798.69;4990491;28;20034;-77
2022/09/17 06:21:55;;;;;;;28.75;4.05;;;16.60;99.90;;;18.15;83.42;99806.13;4989019;28;21121;-77
2022/09/17 06:24:21;;;;;;;33.15;4.78;;;17.10;99.90;;;17.91;83.20;99798.59;4990240;28;20033;-77
2022/09/17 06:26:46;;;;;;;36.00;4.88;;;17.40;99.90;;;17.93;83.17;99801.97;4988595;28;20077;-77
2022/09/17 06:29:14;;;;;;;31.25;3.65;;;17.60;99.90;;;19.09;79.80;99807.94;4989736;28;20121;-77
2022/09/17 06:31:43;;;;;;;21.85;3.35;;;17.90;99.90;;;18.33;78.20;99809.72;4989605;28;20062;-78
2022/09/17 06:34:08;;;;;;;23.00;3.60;;;18.00;99.90;;;18.56;78.23;99810.25;5004925;28;20391;-77
2022/09/17 06:36:34;;;;;;;26.15;3.65;;;18.20;99.90;;;21.09;71.27;99820.75;5006179;28;20044;-77
2022/09/17 06:39:00;;;;;;;22.48;3.50;;;18.90;99.90;;;22.02;66.26;99809.91;5006303;28;20113;-77
2022/09/17 06:41:26;;;;;;;19.98;4.13;;;20.00;99.90;;;25.15;58.35;99809.63;4989669;28;20030;-77
2022/09/17 06:43:55;;;;;;;19.55;3.83;;;21.40;99.90;;;26.37;54.21;99817.75;4990591;28;20050;-77
2022/09/17 06:46:21;;;;;;;22.65;4.03;;;22.40;99.90;;;25.78;54.51;99826.09;5005103;28;20030;-77
2022/09/17 06:48:47;;;;;;;30.05;4.63;;;22.80;99.90;;;24.64;55.84;99823.03;5008045;28;20479;-79
2022/09/17 06:51:13;;;;;;;23.35;4.35;;;22.60;99.90;;;22.29;60.16;99815.97;5010273;28;20038;-79
2022/09/17 06:53:40;;;;;;;26.27;4.43;;;22.00;99.90;;;21.15;63.72;99813.94;5010337;28;20029;-79
2022/09/17 06:56:07;;;;;;;25.48;4.38;;;21.20;99.90;;;20.00;66.95;99815.88;5010263;28;20034;-79
2022/09/17 06:58:37;;;;;;;31.05;4.05;;;20.40;99.90;;;18.97;70.59;99825.97;5007504;28;20483;-79
2022/09/17 07:01:04;;;;;;;31.52;5.00;;;19.60;99.90;;;18.10;73.67;99825.22;5010210;28;20053;-79
2022/09/17 07:03:31;;;;;;;31.17;4.70;;;18.90;99.90;;;17.31;76.38;99819.94;4992648;28;20730;-79
2022/09/17 07:05:57;;;;;;;33.03;4.40;;;18.40;99.90;;;16.88;78.67;99827.22;5008174;28;20038;-79
2022/09/17 07:08:24;;;;;;;36.53;4.78;;;17.70;99.90;;;16.15;81.75;99821.06;5008220;28;20039;-79
2022/09/17 07:10:55;;;;;;;30.73;4.65;;;17.20;99.90;;;15.85;83.95;99827.13;4993930;28;20344;-79
2022/09/17 07:13:21;;;;;;;27.63;4.25;;;16.90;99.90;;;15.71;85.81;99831.78;5007437;28;20117;-79
2022/09/17 07:15:58;;;;;;;28.33;5.03;;;16.70;99.90;;;15.52;86.80;99829.75;5009385;28;20089;-79
2022/09/17 07:18:25;;;;;;;32.03;4.47;;;16.50;99.90;;;15.58;86.70;99826.59;5046904;23;20054;-78
2022/09/17 07:21:00;;;;;;;46.50;5.60;;;16.50;99.90;;;15.88;86.43;99830.38;5027210;28;20061;-79
2022/09/17 07:23:32;;;;;;;33.03;4.45;;;16.50;99.90;;;15.85;85.01;99837.75;5011939;28;20037;-79
2022/09/17 07:26:01;;;;;;;37.58;5.55;;;16.60;99.90;;;15.76;85.89;99829.56;5027402;28;20103;-78
2022/09/17 07:28:35;;;;;;;39.17;5.50;;;16.50;99.90;;;15.63;87.07;99839.47;5026152;28;20033;-79
2022/09/17 07:31:04;;;;;;;42.47;5.40;;;16.40;99.90;;;15.50;87.37;99839.63;5011857;28;20041;-78
2022/09/17 07:33:30;;;;;;;31.27;4.78;;;16.40;99.90;;;15.43;88.31;99837.63;5015082;28;20029;-78
2022/09/17 07:36:02;;;;;;;37.75;4.57;;;16.30;99.90;;;15.27;88.94;99832.69;4996353;28;20038;-78
2022/09/17 07:38:29;;;;;;;37.30;5.78;;;16.10;99.90;;;15.17;90.70;99846.69;5036061;28;20391;-77
2022/09/17 07:40:57;;;;;;;36.70;5.43;;;16.10;99.90;;;15.35;91.62;99840.88;5012574;28;20021;-79
2022/09/17 07:43:30;;;;;;;42.35;6.00;;;16.30;99.90;;;15.72;89.30;99849.41;4999749;28;20030;-79
2022/09/17 07:45:58;;;;;;;42.55;5.45;;;16.50;99.90;;;16.06;87.87;99849.25;5032970;28;20030;-79
2022/09/17 07:48:24;;;;;;;41.97;5.43;;;16.70;99.90;;;16.46;86.01;99851.22;4998881;28;20034;-79
2022/09/17 07:50:53;;;;;;;39.42;6.07;;;17.10;99.90;;;17.08;83.59;99851.25;5014753;28;20649;-78
2022/09/17 07:53:20;;;;;;;34.20;5.68;;;17.50;99.90;;;17.57;79.63;99845.06;4997768;28;20124;-77
2022/09/17 07:55:59;;;;;;;47.95;6.53;;;18.00;99.90;;;17.91;78.25;99851.88;5013303;28;20034;-79
2022/09/17 07:58:41;;;;;;;39.70;5.75;;;18.20;99.90;;;17.51;76.70;99845.59;4995397;28;20402;-80
2022/09/17 08:01:10;;;;;;;40.85;5.90;;;18.00;99.90;;;16.98;78.21;99846.72;5026068;28;20030;-79
2022/09/17 08:03:38;;;;;;;29.13;4.55;;;17.70;99.90;;;16.63;80.26;99854.22;5010702;28;20063;-78
2022/09/17 08:06:09;;;;;;;34.35;5.22;;;17.40;99.90;;;16.35;80.91;99849.47;4995385;28;20128;-79
2022/09/17 08:08:37;;;;;;;39.65;5.35;;;17.30;99.90;;;16.43;82.87;99850.63;5034747;23;20064;-78
2022/09/17 08:11:12;;;;;;;50.08;6.45;;;17.40;99.90;;;16.86;81.82;99855.78;5029289;28;20393;-79
2022/09/17 08:13:38;;;;;;;30.90;5.03;;;17.50;99.90;;;16.91;80.52;99850.03;4995659;28;20032;-78
2022/09/17 08:16:08;;;;;;;31.90;5.45;;;17.50;99.90;;;16.74;80.85;99854.16;5013062;28;20498;-78
2022/09/17 08:18:39;;;;;;;34.55;5.32;;;17.40;99.90;;;16.67;80.64;99855.63;5030864;28;20029;-78
2022/09/17 08:21:08;;;;;;;33.88;5.38;;;17.50;99.90;;;16.94;80.88;99852.47;5031881;28;20508;-78
2022/09/17 08:23:37;;;;;;;27.58;4.53;;;17.70;99.90;;;17.38;79.20;99847.69;5030151;28;20106;-78
2022/09/17 08:26:10;;;;;;;35.67;5.18;;;18.20;99.90;;;18.43;76.64;99863.03;5028941;28;20037;-79
2022/09/17 08:28:36;;;;;;;36.30;5.82;;;19.10;99.90;;;19.83;72.18;99869.19;5030142;28;20172;-78
2022/09/17 08:31:05;;;;;;;29.88;4.53;;;19.90;99.90;;;19.98;69.77;99855.31;5031063;28;20036;-80
2022/09/17 08:33:37;;;;;;;28.08;4.85;;;20.10;99.90;;;19.46;70.13;99846.06;5029312;28;20108;-79
2022/09/17 08:36:06;;;;;;;27.38;4.95;;;20.00;99.90;;;18.90;70.96;99852.41;5029164;28;20037;-79
2022/09/17 08:38:35;;;;;;;25.40;4.10;;;19.40;99.90;;;17.97;72.71;99843.28;5027940;28;20029;-79
2022/09/17 08:41:11;;;;;;;31.20;4.13;;;19.00;99.90;;;17.60;74.15;99849.25;5028347;28;20083;-78
2022/09/17 08:44:20;;;;;;;20.30;3.63;;;18.40;99.90;;;17.14;75.74;99850.69;5030934;28;20033;-78
2022/09/17 08:47:08;;;;;;;28.20;4.35;;;18.00;99.90;;;16.95;76.79;99860.31;5010707;28;20039;-79
2022/09/17 08:49:52;;;;;;;29.35;4.13;;;17.90;99.90;;;16.90;76.66;99857.19;4997878;28;20462;-79
2022/09/17 08:52:53;;;;;;;27.80;4.57;;;17.80;99.90;;;17.10;75.71;99862.59;5017847;28;20033;-80
2022/09/17 08:55:42;;;;;;;20.52;3.47;;;17.80;99.90;;;17.23;76.49;99863.19;5031367;28;20052;-79
2022/09/17 08:58:51;;;;;;;21.55;3.85;;;18.00;99.90;;;17.46;75.79;99862.97;5032651;28;20038;-78
2022/09/17 09:01:28;;;;;;;23.08;4.03;;;18.10;99.90;;;17.41;74.56;99860.72;5011594;28;20029;-78
2022/09/17 09:04:06;;;;;;;18.90;2.97;;;18.10;99.90;;;17.48;74.49;99858.38;5030056;28;20049;-78
2022/09/17 09:06:49;;;;;;;19.88;3.22;;;18.20;99.90;;;17.73;74.07;99872.97;5015546;28;20029;-79
2022/09/17 09:09:20;;;;;;;21.42;3.25;;;18.40;99.90;;;17.92;72.77;99874.84;5024392;28;20503;-79
2022/09/17 09:11:50;;;;;;;25.23;3.75;;;18.40;99.90;;;17.53;73.17;99869.44;5023256;28;20117;-78
2022/09/17 09:14:16;;;;;;;20.52;3.92;;;18.30;99.90;;;17.43;73.88;99864.94;5031436;28;20501;-79
2022/09/17 09:16:48;;;;;;;19.80;3.38;;;18.20;99.90;;;17.43;74.96;99875.59;5017274;28;20057;-79
2022/09/17 09:19:35;;;;;;;21.42;3.33;;;18.30;99.90;;;17.72;74.01;99880.09;5020230;28;20029;-80
2022/09/17 09:22:44;;;;;;;23.70;3.22;;;18.40;99.90;;;17.98;73.03;99880.44;5033997;28;20056;-79
2022/09/17 09:25:35;;;;;;;19.88;3.53;;;18.50;99.90;;;17.81;72.75;99878.44;5023603;28;20037;-78
2022/09/17 09:28:35;;;;;;;26.10;3.60;;;18.50;99.90;;;17.79;73.39;99891.03;5035713;28;20032;-80
2022/09/17 09:31:28;;;;;;;17.77;3.28;;;18.50;99.90;;;17.67;73.66;99887.69;5036287;28;20048;-78
2022/09/17 09:33:58;;;;;;;15.02;2.10;;;18.30;99.90;;;17.29;73.13;99891.91;5033855;28;20036;-78
2022/09/17 09:36:34;;;;;;;12.73;2.10;;;18.30;99.90;;;17.54;73.02;99897.75;5007379;28;20111;-78
2022/09/17 09:39:29;;;;;;;20.58;3.20;;;18.30;99.90;;;17.66;72.60;99896.63;5016412;28;20067;-79
2022/09/17 09:42:17;;;;;;;11.20;2.15;;;18.40;99.90;;;17.89;72.19;99897.25;5034931;28;20083;-78
2022/09/17 09:44:48;;;;;;;12.98;2.03;;;18.40;99.90;;;17.99;71.93;99895.47;5026692;28;20591;-78
2022/09/17 09:47:58;;;;;;;8.73;1.40;;;18.30;99.90;;;17.43;71.48;99888.88;5013112;28;20045;-78
2022/09/17 09:50:59;;;;;;;8.98;1.88;;;18.20;99.90;;;17.32;72.16;99882.81;5007230;28;20045;-80
2022/09/17 09:53:54;;;;;;;13.38;2.47;;;18.10;99.90;;;17.49;72.57;99886.66;5025212;28;20064;-79
2022/09/17 09:56:53;;;;;;;10.25;1.60;;;18.30;99.90;;;17.66;72.02;99888.66;5029655;28;20037;-78
2022/09/17 09:59:27;;;;;;;12.85;1.83;;;18.30;99.90;;;17.71;72.57;99893.56;5025805;28;20026;-78
2022/09/17 10:01:53;;;;;;;10.80;2.05;;;18.40;99.90;;;17.83;71.08;99893.31;5024962;28;20125;-79
2022/09/17 10:04:27;;;;;;;12.75;1.95;;;18.50;99.90;;;17.96;70.01;99893.06;5028660;28;20506;-79
2022/09/17 10:07:11;;;;;;;7.82;1.40;;;18.50;99.90;;;17.68;70.30;99886.69;5012352;28;20026;-78
2022/09/17 10:09:44;;;;;;;7.68;1.35;;;18.30;99.90;;;17.18;70.72;99884.03;5027039;28;20029;-78
2022/09/17 10:12:16;;;;;;;9.48;1.60;;;18.00;99.90;;;17.01;71.67;99889.00;5011746;28;20036;-77
2022/09/17 10:14:46;;;;;;;11.05;1.85;;;18.00;99.90;;;17.17;72.66;99888.53;5024633;28;20057;-77
2022/09/17 10:17:26;;;;;;;6.68;1.50;;;17.90;99.90;;;16.92;71.81;99887.16;5025370;28;20095;-79
2022/09/17 10:20:03;;;;;;;10.48;1.80;;;17.80;99.90;;;17.02;71.44;99888.03;4997686;28;20040;-79
2022/09/17 10:22:48;;;;;;;6.35;1.42;;;17.90;99.90;;;17.18;71.34;99886.69;5028734;28;20030;-79
2022/09/17 10:25:27;;;;;;;6.20;1.20;;;18.00;99.90;;;17.43;70.55;99898.69;5026358;28;20099;-79
2022/09/17 10:27:56;;;;;;;6.35;1.23;;;18.10;99.90;;;17.30;69.00;99893.63;5028601;28;20041;-79
2022/09/17 10:30:24;;;;;;;6.63;1.48;;;18.20;99.90;;;17.65;68.89;99897.63;5000971;28;20457;-79
2022/09/17 10:33:26;;;;;;;6.45;1.55;;;18.40;99.90;;;17.88;68.79;99889.41;5027806;28;20038;-79
2022/09/17 10:36:36;;;;;;;8.20;1.40;;;18.60;99.90;;;18.20;67.91;99897.97;5010907;28;20429;-79
2022/09/17 10:39:47;;;;;;;7.88;1.50;;;18.80;99.90;;;18.48;67.12;99905.25;5009388;28;20095;-79
2022/09/17 10:42:21;;;;;;;9.02;1.50;;;19.00;99.90;;;18.59;66.41;99899.75;5009632;28;20064;-80